메인 페이지
METAR-TAF:

METAR-TAF

공항 :

산타크루스, 리우데자네이루, 브라질

위도: 22-56S, 경도: 043-43W, 고도: 3m

현재 날씨관측

예보는 34분 전, 07:00시(UTC)에 발표되었습니다.
3kt
온도 18°C
습도 94%
기압 1023 hPa
시정: 5000m
고도 800ft 상공 구름 많음
고도 3000ft 상공 흐림
약한비

METAR: SBSC 230700Z 27003KT 5000 -RA BKN008 OVC030 18/17 Q1023

시각: 04:34 (07:34 UTC)

예보

예보는 4 시간 34분 전, 03:00시(UTC)에 발표되었습니다.
예보 대상 시간: 23일 06시부터 23일 18시까지 (UTC)
동남동7kt
시정: 8000m
고도 800ft 상공 구름 보통
고도 2000ft 상공 구름 많음
확률 40% :
일시적
23일 06시부터 23일 10시까지 (UTC)
시정: 3000m
고도 400ft 상공 구름 많음
고도 1000ft 상공 흐림
비, 이슬비, 박무
전환 중
23일 12시부터 23일 14시까지 (UTC)
시정 10km 이상
고도 1200ft 상공 구름 보통
고도 3000ft 상공 구름 많음

TAF: SBSC 230300Z 2306/2318 11007KT 8000 SCT008 BKN020 TN17/2308Z TX21/2318Z PROB40 TEMPO 2306/2310 3000 RADZ BR BKN004 OVC010 BECMG 2312/2314 9999 NSW SCT012 BKN030 RMK PER

4,000개 이상의 공항 관측 자료 및 예보 (METAR 및 TAF 보고).

지도상에서 검색 가능한 기상관측소가 노란 점과 빨간 점으로 표시되어 있습니다.

기상관측소 명을 보려면 표시 위로 마우스를 이동하세요.

날씨 관측과 예보를 보려면 클릭하세요.

지도 변경 : 확대하려면 엑스 표시가 있는 녹색 버튼, 축소하려면 빼기 표시가 있는 녹색 버튼, 다음 페이지의 지도를 보려면 녹색 화살표를 클릭하세요.


METAR-TAF: